Eastborough, Kansas
Current Conditions -  °F | °C
As of 10:43 AM on Sunday 21 Dec 2014 (Local Time) from KIAB Reporting Station
Overcast Overcast  
Wind Chill: 35°   Ceiling: 900
Heat Index: 43°   Visibility: 10mi
Dew Point: 39°   Wind: 15mph
Humidity: 87%   Direction: 160°SSE
Pressure: 29.93"   Gusts: NA
Location:  37.6676°N, 97.2266°W
Report Text: KIAB 211643Z AUTO 16013KT 10SM OVC009 06/04 A2993 RMK AO2 RAB1633E1643
Loading
Personal Weather Stations






























Interactive Weather Map New forecast layout! Learn more

10-Day Weather Forecast

Advertisements
Track Severe Weather on mobile